Time;durP1;ratioP1;P1;durP2;ratioP2;P2;SDS_P1;SDS_P2;PMS_P1;PMS_P2;Temp;Humidity;BMP_temperature;BMP_pressure;BME280_temperature;BME280_humidity;BME280_pressure;Samples;Min_cycle;Max_cycle;Signal;HPM_P1;HPM_P2
2022/05/18 00:01:49;;;;;;;4.00;1.05;;;;;;;17.58;79.45;100896.09;4957294;29;20038;-74
2022/05/18 00:04:15;;;;;;;2.97;1.02;;;;;;;17.54;79.38;100895.09;4973745;28;20031;-74
2022/05/18 00:06:40;;;;;;;1.73;0.85;;;;;;;17.50;79.71;100899.75;4944509;28;20516;-74
2022/05/18 00:09:05;;;;;;;2.70;0.90;;;;;;;17.48;79.83;100905.66;4977713;28;20023;-74
2022/05/18 00:11:32;;;;;;;4.70;1.13;;;;;;;17.44;80.08;100901.88;4960218;28;20066;-74
2022/05/18 00:13:58;;;;;;;3.70;0.75;;;;;;;17.40;80.26;100900.88;4977614;28;20066;-74
2022/05/18 00:16:24;;;;;;;1.85;0.90;;;;;;;17.38;80.17;100908.81;4947444;28;20042;-74
2022/05/18 00:18:50;;;;;;;1.45;0.77;;;;;;;17.33;80.18;100901.41;4941314;29;20040;-74
2022/05/18 00:21:15;;;;;;;2.35;0.77;;;;;;;17.31;80.31;100891.66;4958555;28;20054;-74
2022/05/18 00:23:41;;;;;;;2.63;0.80;;;;;;;17.28;80.25;100890.31;4959350;28;20041;-74
2022/05/18 00:26:07;;;;;;;3.28;1.00;;;;;;;17.23;80.44;100900.88;4960152;28;20034;-74
2022/05/18 00:28:33;;;;;;;1.73;0.70;;;;;;;17.22;80.40;100890.81;4940347;29;20031;-74
2022/05/18 00:30:59;;;;;;;1.35;0.65;;;;;;;17.16;80.67;100892.94;4928085;28;20113;-74
2022/05/18 00:33:24;;;;;;;4.20;0.80;;;;;;;17.14;80.67;100890.47;4977336;28;20077;-74
2022/05/18 00:35:50;;;;;;;3.70;1.02;;;;;;;17.10;80.63;100895.09;4944133;28;20071;-74
2022/05/18 00:38:15;;;;;;;3.13;0.80;;;;;;;17.09;80.69;100898.25;4940691;29;20038;-75
2022/05/18 00:40:44;;;;;;;2.55;0.80;;;;;;;17.05;80.86;100900.88;4958668;28;20097;-74
2022/05/18 00:43:19;;;;;;;3.88;0.95;;;;;;;17.01;81.09;100899.88;4928614;28;20041;-74
2022/05/18 00:45:45;;;;;;;1.27;0.75;;;;;;;16.99;81.06;100899.38;4960362;28;20031;-75
2022/05/18 00:48:10;;;;;;;2.90;0.90;;;;;;;16.95;81.32;100906.81;4943771;28;20109;-75
2022/05/18 00:50:36;;;;;;;3.33;1.00;;;;;;;16.93;80.81;100909.09;4944070;28;20035;-74
2022/05/18 00:53:01;;;;;;;3.38;0.85;;;;;;;16.90;81.11;100902.16;4941447;28;20535;-74
2022/05/18 00:55:28;;;;;;;2.45;0.70;;;;;;;16.86;81.15;100903.16;4959281;28;20030;-74
2022/05/18 00:58:04;;;;;;;2.90;0.88;;;;;;;16.82;81.16;100902.16;4915824;28;20031;-74
2022/05/18 01:00:30;;;;;;;3.20;0.95;;;;;;;16.80;81.03;100908.09;4953372;28;20047;-74
2022/05/18 01:02:57;;;;;;;1.75;0.90;;;;;;;16.77;81.20;100905.94;4959556;28;20079;-74
2022/05/18 01:05:27;;;;;;;2.60;0.90;;;;;;;16.72;81.49;100904.09;4925287;29;20039;-74
2022/05/18 01:07:54;;;;;;;4.53;1.08;;;;;;;16.71;81.07;100910.00;4940765;28;20031;-74
2022/05/18 01:10:19;;;;;;;2.22;0.82;;;;;;;16.68;81.32;100903.06;4959552;28;20047;-74
2022/05/18 01:12:46;;;;;;;1.50;0.70;;;;;;;16.66;81.52;100905.41;4959856;28;20751;-74
2022/05/18 01:15:14;;;;;;;3.63;0.80;;;;;;;16.64;81.21;100910.50;4940553;29;20114;-74
2022/05/18 01:17:40;;;;;;;3.80;1.00;;;;;;;16.60;81.07;100917.88;4955165;28;20089;-74
2022/05/18 01:20:12;;;;;;;3.00;0.90;;;;;;;16.57;81.38;100912.13;4943658;28;20391;-74
2022/05/18 01:23:08;;;;;;;4.43;1.45;;;;;;;16.52;81.81;100905.50;4942659;28;20035;-74
2022/05/18 01:25:36;;;;;;;2.58;1.05;;;;;;;16.48;81.73;100924.13;4959163;28;20041;-74
2022/05/18 01:28:02;;;;;;;3.00;1.05;;;;;;;16.46;82.12;100903.16;4976985;28;20023;-74
2022/05/18 01:30:28;;;;;;;5.35;1.13;;;;;;;16.45;82.33;100923.94;4927834;28;20384;-74
2022/05/18 01:32:54;;;;;;;4.20;1.30;;;;;;;16.44;82.16;100916.69;4959756;28;20506;-74
2022/05/18 01:35:28;;;;;;;2.78;1.25;;;;;;;16.42;82.77;100919.00;4943822;28;20035;-74
2022/05/18 01:37:59;;;;;;;5.30;1.50;;;;;;;16.41;82.21;100908.91;4925730;29;20435;-74
2022/05/18 01:40:55;;;;;;;5.32;1.55;;;;;;;16.38;82.24;100915.16;4976378;28;20447;-74
2022/05/18 01:43:23;;;;;;;4.78;1.50;;;;;;;16.35;82.57;100921.41;4978569;28;20038;-74
2022/05/18 01:45:50;;;;;;;4.80;1.40;;;;;;;16.34;82.05;100905.78;4931185;28;20162;-74
2022/05/18 01:48:17;;;;;;;4.68;1.58;;;;;;;16.31;82.27;100912.84;4963010;28;20027;-74
2022/05/18 01:50:42;;;;;;;4.18;1.52;;;;;;;16.27;82.45;100909.88;4962905;28;20089;-74
2022/05/18 01:53:08;;;;;;;6.07;1.63;;;;;;;16.25;82.55;100903.75;4931012;28;20039;-74
2022/05/18 01:55:33;;;;;;;4.15;1.50;;;;;;;16.23;82.69;100903.25;4914756;28;20022;-74
2022/05/18 01:57:59;;;;;;;3.53;1.52;;;;;;;16.21;82.79;100905.53;4915147;28;20034;-74
2022/05/18 02:00:25;;;;;;;3.13;1.52;;;;;;;16.20;82.58;100897.47;4963026;28;20034;-74
2022/05/18 02:02:51;;;;;;;5.70;1.55;;;;;;;16.18;82.91;100908.97;4979722;28;20034;-74
2022/05/18 02:05:16;;;;;;;3.97;1.48;;;;;;;16.16;82.77;100913.25;4962617;28;20031;-74
2022/05/18 02:07:42;;;;;;;4.22;1.50;;;;;;;16.13;83.28;100911.94;4944637;28;20027;-74
2022/05/18 02:10:08;;;;;;;4.85;1.65;;;;;;;16.10;83.13;100906.97;4962510;28;20038;-74
2022/05/18 02:12:34;;;;;;;4.20;1.33;;;;;;;16.06;82.71;100914.38;4962194;28;20102;-74
2022/05/18 02:15:00;;;;;;;3.03;1.38;;;;;;;16.05;82.84;100910.75;4956131;29;20035;-74
2022/05/18 02:17:25;;;;;;;4.57;1.33;;;;;;;16.04;82.85;100913.84;4956159;28;20031;-74
2022/05/18 02:19:51;;;;;;;4.70;1.65;;;;;;;15.98;83.05;100918.75;4949482;28;20035;-74
2022/05/18 02:22:17;;;;;;;3.50;1.35;;;;;;;15.98;82.72;100923.53;4960620;28;20042;-74
2022/05/18 02:24:42;;;;;;;3.92;1.13;;;;;;;15.95;82.97;100927.00;4962151;28;20062;-74
2022/05/18 02:27:08;;;;;;;2.65;1.30;;;;;;;15.94;82.84;100930.94;4962302;28;20030;-74
2022/05/18 02:29:34;;;;;;;2.53;1.30;;;;;;;15.89;82.66;100919.88;4979701;28;20031;-74
2022/05/18 02:31:59;;;;;;;3.53;1.13;;;;;;;15.84;82.77;100921.66;4979340;28;20033;-74
2022/05/18 02:34:25;;;;;;;4.72;1.20;;;;;;;15.81;82.76;100922.28;4946430;29;20027;-74
2022/05/18 02:36:50;;;;;;;2.40;1.10;;;;;;;15.81;82.82;100915.88;4956440;28;20037;-74
2022/05/18 02:39:20;;;;;;;4.30;1.15;;;;;;;15.79;82.43;100912.56;4979052;28;20030;-74
2022/05/18 02:41:47;;;;;;;2.53;1.10;;;;;;;15.74;82.64;100910.72;4962067;28;20082;-74
2022/05/18 02:44:12;;;;;;;3.90;1.13;;;;;;;15.72;82.75;100907.41;4961814;28;20062;-74
2022/05/18 02:46:37;;;;;;;3.17;1.20;;;;;;;15.69;82.82;100905.25;4944184;28;20452;-74
2022/05/18 02:49:03;;;;;;;2.80;1.17;;;;;;;15.67;83.21;100901.09;4945839;28;20030;-74
2022/05/18 02:51:29;;;;;;;2.90;1.30;;;;;;;15.64;83.23;100899.75;4961028;28;20035;-74
2022/05/18 02:53:55;;;;;;;3.78;0.95;;;;;;;15.60;83.28;100896.75;4978926;28;20063;-74
2022/05/18 02:56:25;;;;;;;2.58;1.20;;;;;;;15.58;83.14;100901.03;4978444;28;20030;-74
2022/05/18 02:58:52;;;;;;;3.47;1.42;;;;;;;15.56;83.12;100915.31;4929209;28;20028;-73
2022/05/18 03:01:24;;;;;;;2.97;1.27;;;;;;;15.52;82.95;100908.72;4961870;28;20093;-73
2022/05/18 03:03:50;;;;;;;4.38;1.65;;;;;;;15.50;83.41;100901.78;4944074;28;20041;-73
2022/05/18 03:06:19;;;;;;;5.57;1.90;;;;;;;15.49;83.70;100897.31;4945268;28;20129;-74
2022/05/18 03:08:45;;;;;;;7.15;2.05;;;;;;;15.46;83.90;100897.97;4942017;29;20035;-74
2022/05/18 03:11:11;;;;;;;6.40;2.00;;;;;;;15.44;83.80;100900.25;4963920;28;21563;-73
2022/05/18 03:13:37;;;;;;;4.13;1.80;;;;;;;15.41;83.26;100902.53;4961366;28;20038;-74
2022/05/18 03:16:02;;;;;;;2.78;1.77;;;;;;;15.39;83.37;100902.03;4963017;28;20037;-73
2022/05/18 03:18:28;;;;;;;5.80;2.50;;;;;;;15.37;83.26;100901.50;4964275;28;20039;-74
2022/05/18 03:23:37;;;;;;;6.35;2.28;;;;;;;15.29;83.21;100905.06;4968646;28;20108;-74
2022/05/18 03:26:10;;;;;;;4.88;2.15;;;;;;;15.30;83.15;100905.91;4964557;28;20035;-73
2022/05/18 03:28:37;;;;;;;6.40;2.75;;;;;;;15.27;83.53;100900.97;4980599;28;20407;-73
2022/05/18 03:31:02;;;;;;;6.63;3.03;;;;;;;15.20;83.15;100898.56;4980367;28;20034;-74
2022/05/18 03:33:28;;;;;;;5.85;2.30;;;;;;;15.19;83.26;100903.34;4997758;28;20767;-74
2022/05/18 03:35:53;;;;;;;6.18;3.00;;;;;;;15.18;83.29;100906.44;4980116;28;20034;-74
2022/05/18 03:38:19;;;;;;;10.80;3.25;;;;;;;15.16;83.43;100905.97;4964117;28;20041;-74
2022/05/18 03:40:45;;;;;;;5.57;2.65;;;;;;;15.15;83.56;100909.88;4960492;28;20065;-74
2022/05/18 03:43:10;;;;;;;7.95;2.65;;;;;;;15.13;83.53;100920.59;4971363;28;20026;-74
2022/05/18 03:45:36;;;;;;;6.05;2.80;;;;;;;15.10;83.31;100912.78;4997473;28;20084;-74
2022/05/18 03:48:02;;;;;;;7.72;2.63;;;;;;;15.08;83.69;100912.31;4997688;28;20475;-74
2022/05/18 03:50:28;;;;;;;6.07;2.42;;;;;;;15.04;83.48;100906.47;4979951;28;20034;-74
2022/05/18 03:52:57;;;;;;;5.47;2.78;;;;;;;15.04;83.40;100908.47;4964267;28;20030;-74
2022/05/18 03:55:23;;;;;;;7.85;2.75;;;;;;;15.03;83.32;100912.41;4961185;28;20026;-74
2022/05/18 03:57:48;;;;;;;6.25;2.30;;;;;;;14.98;83.77;100911.38;4979408;28;20580;-73
2022/05/18 04:00:14;;;;;;;7.05;2.85;;;;;;;14.96;83.81;100910.06;4997609;28;20030;-74
2022/05/18 04:02:40;;;;;;;5.82;2.22;;;;;;;14.94;83.86;100915.94;4961444;28;20446;-74
2022/05/18 04:05:08;;;;;;;5.88;2.20;;;;;;;14.92;83.48;100915.44;4979993;28;20058;-74
2022/05/18 04:07:33;;;;;;;5.35;2.30;;;;;;;14.90;83.80;100908.50;4947468;28;20372;-74
2022/05/18 04:09:59;;;;;;;5.85;2.45;;;;;;;14.86;84.12;100902.69;4979452;28;20084;-74
2022/05/18 04:12:25;;;;;;;7.70;2.35;;;;;;;14.84;83.78;100910.56;4967032;28;20058;-73
2022/05/18 04:14:54;;;;;;;6.22;2.83;;;;;;;14.78;83.87;100908.22;4954841;29;20035;-74
2022/05/18 04:17:20;;;;;;;5.03;2.20;;;;;;;14.74;84.08;100906.03;4970336;28;20041;-74
2022/05/18 04:19:46;;;;;;;4.53;1.80;;;;;;;14.74;83.97;100910.81;4960296;28;20031;-74
2022/05/18 04:22:11;;;;;;;5.03;1.85;;;;;;;14.69;83.44;100902.53;4925830;28;20027;-74
2022/05/18 04:24:37;;;;;;;4.18;2.20;;;;;;;14.71;84.15;100901.06;4974539;28;20035;-73
2022/05/18 04:27:03;;;;;;;5.28;2.28;;;;;;;14.62;83.82;100907.69;4960378;28;20038;-73
2022/05/18 04:29:28;;;;;;;5.43;2.10;;;;;;;14.60;83.84;100905.22;4944206;28;20059;-74
2022/05/18 04:31:54;;;;;;;5.32;1.85;;;;;;;14.59;84.07;100902.72;4960262;28;20066;-73
2022/05/18 04:34:21;;;;;;;5.13;1.88;;;;;;;14.57;84.27;100905.00;4944169;28;20117;-74
2022/05/18 04:36:46;;;;;;;5.90;2.08;;;;;;;14.52;84.66;100895.59;4941500;29;20068;-74
2022/05/18 04:39:12;;;;;;;4.57;2.08;;;;;;;14.53;84.56;100894.44;4943859;28;20023;-74
2022/05/18 04:41:37;;;;;;;6.18;2.25;;;;;;;14.51;84.32;100896.72;4977281;28;20046;-74
2022/05/18 04:44:03;;;;;;;3.50;1.90;;;;;;;14.52;84.55;100891.97;4960306;28;20030;-74
2022/05/18 04:46:28;;;;;;;4.07;1.90;;;;;;;14.52;84.60;100903.97;4960257;28;20038;-74
2022/05/18 04:48:54;;;;;;;5.40;2.35;;;;;;;14.56;84.47;100908.94;4961044;28;20035;-74
2022/05/18 04:51:19;;;;;;;4.93;1.88;;;;;;;14.56;84.45;100914.53;4943968;28;20031;-74
2022/05/18 04:53:45;;;;;;;5.07;2.05;;;;;;;14.56;84.49;100911.75;4944040;28;20038;-74
2022/05/18 04:56:10;;;;;;;3.97;1.92;;;;;;;14.58;84.78;100910.28;4959495;28;20062;-74
2022/05/18 04:58:36;;;;;;;6.45;2.33;;;;;;;14.60;84.14;100904.38;4976713;28;20030;-74
2022/05/18 05:01:06;;;;;;;5.15;2.65;;;;;;;14.61;84.02;100906.06;4970505;28;20440;-74
2022/05/18 05:03:32;;;;;;;5.43;2.15;;;;;;;14.62;83.82;100902.94;4950572;28;20030;-74
2022/05/18 05:05:57;;;;;;;4.35;1.83;;;;;;;14.65;84.16;100901.47;4976919;28;20042;-74
2022/05/18 05:08:23;;;;;;;3.65;1.70;;;;;;;14.67;83.86;100902.81;4959597;28;20031;-73
2022/05/18 05:10:48;;;;;;;4.03;2.10;;;;;;;14.72;83.85;100910.28;4959566;28;20046;-73
2022/05/18 05:13:15;;;;;;;4.15;1.83;;;;;;;14.77;83.78;100910.19;4944051;28;20059;-70
2022/05/18 05:15:41;;;;;;;3.85;1.77;;;;;;;14.82;83.97;100910.06;4968950;28;20046;-71
2022/05/18 05:18:06;;;;;;;4.97;1.95;;;;;;;14.86;84.24;100908.28;4959208;29;20043;-71
2022/05/18 05:20:32;;;;;;;3.13;2.00;;;;;;;14.93;84.58;100914.31;4973523;28;20081;-71
2022/05/18 05:22:57;;;;;;;4.03;2.10;;;;;;;14.98;85.30;100914.16;4973849;28;20424;-71
2022/05/18 05:25:23;;;;;;;3.15;2.17;;;;;;;15.08;84.39;100921.50;4963273;28;20035;-71
2022/05/18 05:27:48;;;;;;;3.78;1.90;;;;;;;15.21;84.02;100922.63;4963318;28;20019;-71
2022/05/18 05:30:14;;;;;;;2.85;1.67;;;;;;;15.32;83.75;100924.03;4928410;29;20039;-71
2022/05/18 05:32:40;;;;;;;2.92;1.92;;;;;;;15.47;84.96;100930.41;4930813;28;20022;-70
2022/05/18 05:35:07;;;;;;;3.78;2.03;;;;;;;15.62;86.85;100930.03;4928202;29;20232;-72
2022/05/18 05:37:33;;;;;;;3.78;2.20;;;;;;;15.76;87.79;100933.63;4928747;28;20027;-72
2022/05/18 05:39:58;;;;;;;4.63;1.90;;;;;;;15.94;85.99;100939.34;4940861;28;20046;-73
2022/05/18 05:42:24;;;;;;;3.17;1.50;;;;;;;16.09;84.02;100925.75;4912442;29;20027;-73
2022/05/18 05:44:49;;;;;;;3.67;1.83;;;;;;;16.28;83.47;100931.13;4940617;28;20038;-73
2022/05/18 05:47:15;;;;;;;2.53;1.50;;;;;;;16.47;83.16;100932.88;4950050;28;20034;-72
2022/05/18 05:49:42;;;;;;;2.47;1.42;;;;;;;16.65;83.19;100939.34;4918390;28;20033;-73
2022/05/18 05:52:08;;;;;;;5.80;1.80;;;;;;;16.83;81.86;100931.88;4915806;28;20636;-73
2022/05/18 05:54:34;;;;;;;6.50;1.73;;;;;;;17.02;80.97;100938.03;4927695;28;20034;-73
2022/05/18 05:57:03;;;;;;;2.30;1.35;;;;;;;17.20;80.60;100945.28;4950171;28;20097;-73
2022/05/18 05:59:33;;;;;;;2.33;1.20;;;;;;;17.40;80.03;100943.00;4929038;28;20476;-72
2022/05/18 06:01:59;;;;;;;3.80;1.55;;;;;;;17.58;79.78;100939.03;4947322;28;20035;-72
2022/05/18 06:04:25;;;;;;;3.95;1.70;;;;;;;17.73;78.91;100945.31;4929090;28;20563;-72
2022/05/18 06:06:50;;;;;;;5.30;1.55;;;;;;;17.88;78.23;100942.00;4946471;28;20085;-72
2022/05/18 06:09:16;;;;;;;5.55;1.75;;;;;;;17.99;79.08;100942.47;4929078;28;20089;-72
2022/05/18 06:11:41;;;;;;;3.30;1.50;;;;;;;18.14;78.29;100939.16;4943290;29;20051;-72
2022/05/18 06:14:07;;;;;;;2.58;1.20;;;;;;;18.24;77.59;100950.00;4929294;28;20046;-72
2022/05/18 06:16:32;;;;;;;2.55;1.20;;;;;;;18.38;76.78;100955.44;4933850;28;20470;-72
2022/05/18 06:18:59;;;;;;;3.50;1.50;;;;;;;18.49;78.09;100955.91;4946655;28;20026;-72
2022/05/18 06:21:25;;;;;;;3.28;1.45;;;;;;;18.60;76.31;100956.34;4946309;28;20039;-73
2022/05/18 06:23:51;;;;;;;3.38;1.00;;;;;;;18.71;75.79;100958.44;4958395;28;20038;-73
2022/05/18 06:26:16;;;;;;;3.88;1.30;;;;;;;18.88;75.74;100954.75;4914719;29;20035;-73
2022/05/18 06:28:42;;;;;;;2.90;1.40;;;;;;;19.01;76.23;100954.84;4911702;29;20030;-74
2022/05/18 06:31:08;;;;;;;3.75;1.40;;;;;;;19.17;75.18;100947.47;4961607;28;20408;-74
2022/05/18 06:33:35;;;;;;;6.60;1.70;;;;;;;19.32;74.97;100941.22;4979558;28;20150;-74
2022/05/18 06:36:00;;;;;;;5.32;1.40;;;;;;;19.40;74.03;100940.31;4975108;28;20034;-74
2022/05/18 06:38:26;;;;;;;3.60;1.33;;;;;;;19.55;73.29;100938.88;4961863;28;20026;-74
2022/05/18 06:43:35;;;;;;;2.63;1.20;;;;;;;19.90;72.67;100934.94;4962700;28;20034;-74
2022/05/18 06:46:01;;;;;;;2.90;1.38;;;;;;;20.09;71.51;100936.06;4927084;29;20028;-74
2022/05/18 06:48:27;;;;;;;2.20;1.40;;;;;;;20.19;71.75;100942.41;4925804;28;20034;-74
2022/05/18 06:50:53;;;;;;;4.68;1.50;;;;;;;20.23;71.84;100940.56;4962001;28;20451;-74
2022/05/18 06:53:18;;;;;;;3.42;1.58;;;;;;;20.34;71.25;100943.72;4961544;28;20046;-75
2022/05/18 06:55:44;;;;;;;4.57;1.58;;;;;;;20.46;69.85;100938.94;4960208;28;20031;-74
2022/05/18 06:58:10;;;;;;;3.78;1.60;;;;;;;20.56;69.39;100940.53;4961598;28;20026;-74
2022/05/18 07:00:35;;;;;;;4.00;1.60;;;;;;;20.67;69.48;100933.25;4971889;28;20035;-75
2022/05/18 07:03:00;;;;;;;3.22;1.33;;;;;;;20.78;68.96;100941.22;4961124;28;20031;-74
2022/05/18 07:05:27;;;;;;;4.60;1.70;;;;;;;20.88;69.83;100935.94;4961638;28;20042;-74
2022/05/18 07:07:52;;;;;;;4.95;2.00;;;;;;;20.85;68.96;100936.63;4944975;28;20028;-74
2022/05/18 07:10:18;;;;;;;2.72;1.35;;;;;;;21.05;68.47;100932.03;4973205;28;20042;-74
2022/05/18 07:12:43;;;;;;;5.53;1.58;;;;;;;21.12;68.24;100932.28;4961271;28;20062;-74
2022/05/18 07:15:09;;;;;;;2.67;1.48;;;;;;;21.27;67.19;100933.53;4969731;28;20035;-75
2022/05/18 07:17:35;;;;;;;2.40;1.20;;;;;;;21.42;66.50;100931.97;4940017;28;20031;-74
2022/05/18 07:20:02;;;;;;;4.55;1.70;;;;;;;21.51;67.38;100937.50;4961117;28;20039;-74
2022/05/18 07:22:27;;;;;;;4.47;1.50;;;;;;;21.60;66.65;100933.34;4960117;28;20078;-74
2022/05/18 07:24:53;;;;;;;3.00;1.45;;;;;;;21.75;65.85;100933.75;4941842;29;20063;-74
2022/05/18 07:27:18;;;;;;;4.75;1.60;;;;;;;21.86;66.19;100932.03;4954855;28;20035;-74
2022/05/18 07:29:44;;;;;;;5.30;1.83;;;;;;;21.98;65.71;100937.66;4978410;28;20031;-74
2022/05/18 07:32:12;;;;;;;6.68;2.13;;;;;;;22.02;65.81;100938.56;4960740;28;20037;-74
2022/05/18 07:34:41;;;;;;;4.05;1.40;;;;;;;22.10;65.02;100928.28;4953885;28;20089;-74
2022/05/18 07:37:07;;;;;;;5.72;1.50;;;;;;;22.15;65.00;100935.66;4977846;28;20058;-74
2022/05/18 07:39:32;;;;;;;4.78;1.70;;;;;;;22.16;66.10;100932.47;4973961;28;20038;-74
2022/05/18 07:41:58;;;;;;;6.40;2.17;;;;;;;22.24;66.23;100942.03;4975926;28;20039;-74
2022/05/18 07:44:25;;;;;;;6.03;2.33;;;;;;;22.35;66.01;100936.66;4961052;28;20037;-74
2022/05/18 07:46:50;;;;;;;4.15;1.63;;;;;;;22.41;65.13;100944.50;4943046;28;20093;-74
2022/05/18 07:49:16;;;;;;;6.22;2.15;;;;;;;22.41;65.25;100938.84;4978183;28;20031;-74
2022/05/18 07:51:43;;;;;;;4.47;2.03;;;;;;;22.39;65.68;100934.72;4977814;28;20480;-74
2022/05/18 07:54:08;;;;;;;4.60;2.30;;;;;;;22.43;65.48;100932.81;4977705;28;20118;-74
2022/05/18 07:56:37;;;;;;;3.95;2.20;;;;;;;22.41;65.03;100929.53;4977663;28;20042;-74
2022/05/18 07:59:03;;;;;;;4.13;2.17;;;;;;;22.40;64.32;100933.53;4959671;28;20547;-74
2022/05/18 08:01:29;;;;;;;5.18;2.08;;;;;;;22.43;64.26;100946.97;4944565;28;20046;-74
2022/05/18 08:03:54;;;;;;;8.00;2.10;;;;;;;22.39;64.81;100943.22;4957918;28;20101;-74
2022/05/18 08:06:20;;;;;;;5.20;1.90;;;;;;;22.43;64.52;100944.16;4960376;28;20038;-74
2022/05/18 08:08:46;;;;;;;4.78;2.28;;;;;;;22.43;65.20;100942.13;4977519;28;20030;-74
2022/05/18 08:16:40;;;;;;;4.07;2.05;;;;;;;22.64;64.98;100935.38;4984482;28;20450;-74
2022/05/18 08:19:10;;;;;;;5.18;2.08;;;;;;;22.73;64.08;100934.00;4963758;28;20550;-74
2022/05/18 08:21:37;;;;;;;4.72;2.30;;;;;;;22.83;65.06;100931.78;4979645;28;20026;-74
2022/05/18 08:24:04;;;;;;;4.20;1.85;;;;;;;22.92;64.27;100936.06;4995075;28;20042;-74
2022/05/18 08:26:30;;;;;;;5.25;2.00;;;;;;;22.95;63.76;100935.34;4996721;28;20033;-74
2022/05/18 08:28:56;;;;;;;5.30;2.35;;;;;;;22.97;63.83;100932.97;4963851;28;20031;-74
2022/05/18 08:31:23;;;;;;;4.00;1.98;;;;;;;23.09;63.66;100936.88;4960125;28;20023;-74
2022/05/18 08:33:48;;;;;;;6.10;2.13;;;;;;;23.13;63.43;100929.31;4974769;28;20048;-74
2022/05/18 08:36:14;;;;;;;5.07;2.28;;;;;;;23.22;63.93;100932.75;4988338;28;20479;-74
2022/05/18 08:38:39;;;;;;;6.72;1.85;;;;;;;23.33;62.49;100927.31;4995876;28;20058;-74
2022/05/18 08:41:19;;;;;;;5.18;2.05;;;;;;;23.45;62.89;100920.69;4993914;28;20537;-74
2022/05/18 08:43:50;;;;;;;6.68;2.25;;;;;;;23.57;61.72;100917.72;4963636;28;20041;-74
2022/05/18 08:46:21;;;;;;;6.28;1.88;;;;;;;23.65;61.04;100913.81;4976910;28;20034;-74
2022/05/18 08:48:49;;;;;;;3.83;1.80;;;;;;;23.74;60.29;100922.97;4994066;28;20395;-74
2022/05/18 08:51:29;;;;;;;5.38;2.08;;;;;;;23.84;60.52;100922.34;5000959;28;20034;-74
2022/05/18 08:54:05;;;;;;;7.18;1.50;;;;;;;23.91;60.14;100920.88;4972547;28;20092;-74
2022/05/18 08:56:38;;;;;;;4.65;1.55;;;;;;;23.95;60.05;100907.56;4999987;28;20056;-74
2022/05/18 08:59:05;;;;;;;3.83;1.60;;;;;;;23.95;59.83;100918.91;4983356;28;20034;-74
2022/05/18 09:01:40;;;;;;;3.75;1.50;;;;;;;24.05;59.76;100918.31;4964536;28;20489;-74
2022/05/18 09:04:16;;;;;;;2.70;1.33;;;;;;;24.15;59.11;100905.50;4964259;28;20383;-74
2022/05/18 09:07:07;;;;;;;5.28;1.67;;;;;;;24.26;59.07;100910.16;4964011;28;20026;-74
2022/05/18 09:10:14;;;;;;;5.43;1.90;;;;;;;24.45;58.23;100908.50;4999309;28;20069;-74
2022/05/18 09:12:45;;;;;;;5.45;1.60;;;;;;;24.52;57.76;100911.47;5000298;28;20058;-74
2022/05/18 09:15:14;;;;;;;3.97;1.80;;;;;;;24.54;57.54;100909.06;4959010;28;20022;-74
2022/05/18 09:17:59;;;;;;;3.08;1.40;;;;;;;24.56;56.89;100898.13;4994390;28;20120;-74
2022/05/18 09:20:26;;;;;;;3.95;1.20;;;;;;;24.59;56.88;100902.25;4982648;28;20042;-74
2022/05/18 09:23:28;;;;;;;3.35;1.48;;;;;;;24.61;56.84;100902.69;4999683;28;20085;-74
2022/05/18 09:26:18;;;;;;;3.58;1.33;;;;;;;24.64;56.07;100890.56;4966406;28;20038;-74
2022/05/18 09:28:52;;;;;;;2.30;0.90;;;;;;;24.63;54.96;100889.75;5000175;28;20040;-74
2022/05/18 09:31:49;;;;;;;2.72;1.10;;;;;;;24.68;55.38;100891.44;4987115;28;20041;-74
2022/05/18 09:34:59;;;;;;;2.38;1.10;;;;;;;24.74;55.11;100893.59;4999978;28;20030;-74
2022/05/18 09:37:29;;;;;;;3.88;1.10;;;;;;;24.85;55.07;100884.38;4903403;29;20192;-74
2022/05/18 09:40:17;;;;;;;1.88;1.00;;;;;;;24.89;54.61;100873.91;4886323;29;20068;-74
2022/05/18 09:42:53;;;;;;;4.68;0.95;;;;;;;24.89;54.09;100882.44;4894249;29;20044;-74
2022/05/18 09:45:22;;;;;;;3.10;1.10;;;;;;;24.91;54.29;100874.34;4905055;29;20040;-74
2022/05/18 09:48:03;;;;;;;2.38;1.13;;;;;;;24.97;53.32;100876.47;4893585;29;20103;-74
2022/05/18 09:50:28;;;;;;;5.82;1.42;;;;;;;25.03;53.40;100874.13;4915002;29;20051;-74
2022/05/18 09:52:54;;;;;;;3.33;1.30;;;;;;;25.11;53.24;100861.66;4888220;29;20052;-74
2022/05/18 09:55:21;;;;;;;4.43;1.08;;;;;;;25.21;53.34;100859.34;4902644;29;20118;-74
2022/05/18 09:58:02;;;;;;;2.72;1.10;;;;;;;25.32;52.73;100846.09;4913826;29;20043;-74
2022/05/18 10:00:30;;;;;;;3.70;0.88;;;;;;;25.33;52.33;100845.72;4915835;29;20705;-74
2022/05/18 10:08:36;;;;;;;5.57;0.93;;;;;;;25.67;50.24;100834.34;4961468;28;20053;-74
2022/05/18 10:11:09;;;;;;;1.92;1.05;;;;;;;25.73;49.73;100843.34;4998450;28;20491;-74
2022/05/18 10:13:36;;;;;;;2.65;0.90;;;;;;;25.73;50.25;100837.66;4983702;28;20108;-74
2022/05/18 10:16:17;;;;;;;2.70;0.80;;;;;;;25.76;50.70;100837.69;4945576;28;20083;-74
2022/05/18 10:18:49;;;;;;;3.70;1.15;;;;;;;25.81;50.81;100837.34;4997992;28;20042;-74
2022/05/18 10:21:21;;;;;;;6.03;1.17;;;;;;;25.89;49.01;100826.06;4968100;28;20384;-74
2022/05/18 10:24:16;;;;;;;;;;;;;;;25.90;48.89;100830.53;4981844;28;20434;-74
2022/05/18 10:26:42;;;;;;;3.40;1.00;;;;;;;25.90;48.98;100817.13;4957454;28;19933;-74
2022/05/18 10:29:11;;;;;;;4.32;1.27;;;;;;;25.94;48.75;100812.31;4949766;28;20375;-74
2022/05/18 10:31:39;;;;;;;4.50;0.90;;;;;;;26.03;48.94;100818.47;4984308;28;20041;-74
2022/05/18 10:34:17;;;;;;;2.92;1.02;;;;;;;26.03;48.68;100807.09;4964783;28;20030;-74
2022/05/18 10:36:48;;;;;;;3.55;1.00;;;;;;;26.02;48.83;100807.47;4979349;28;20475;-74
2022/05/18 10:39:50;;;;;;;1.98;0.80;;;;;;;26.01;47.32;100800.97;4981160;28;20048;-74
2022/05/18 10:42:20;;;;;;;1.55;0.80;;;;;;;26.06;46.16;100805.50;4966890;28;20403;-74
2022/05/18 10:44:46;;;;;;;3.28;0.85;;;;;;;26.12;46.43;100798.22;4981195;28;20042;-74
2022/05/18 10:47:29;;;;;;;2.28;0.80;;;;;;;26.15;47.18;100799.47;4965055;28;20039;-74
2022/05/18 10:50:24;;;;;;;2.50;0.70;;;;;;;26.28;47.12;100789.41;4979612;28;20161;-74
2022/05/18 10:52:59;;;;;;;3.03;0.80;;;;;;;26.37;47.25;100795.56;4998536;28;20034;-74
2022/05/18 10:55:24;;;;;;;3.30;0.90;;;;;;;26.45;46.41;100785.88;4970683;28;20054;-74
2022/05/18 10:58:10;;;;;;;2.67;0.88;;;;;;;26.56;46.74;100790.88;4993296;28;20033;-74
2022/05/18 11:00:45;;;;;;;2.78;0.90;;;;;;;26.64;46.88;100784.00;4967580;28;20023;-74
2022/05/18 11:03:22;;;;;;;1.88;0.75;;;;;;;26.75;47.69;100782.03;4979585;28;20030;-74
2022/05/18 11:05:47;;;;;;;4.53;1.00;;;;;;;26.86;47.23;100782.09;4965343;28;20053;-74
2022/05/18 11:08:16;;;;;;;1.75;0.70;;;;;;;26.95;47.01;100779.69;4997751;28;20023;-74
2022/05/18 11:10:45;;;;;;;2.70;1.00;;;;;;;27.04;47.19;100770.78;4961612;28;20572;-74
2022/05/18 11:13:18;;;;;;;2.45;1.00;;;;;;;27.10;47.35;100777.72;4961017;28;20451;-74
2022/05/18 11:16:03;;;;;;;2.13;0.80;;;;;;;27.16;47.19;100767.56;4936334;28;20488;-74
2022/05/18 11:18:47;;;;;;;2.15;0.68;;;;;;;27.27;46.50;100768.44;4953661;28;20027;-74
2022/05/18 11:21:45;;;;;;;3.05;0.82;;;;;;;27.37;46.15;100761.94;4945280;28;20124;-74
2022/05/18 11:24:40;;;;;;;2.30;0.88;;;;;;;27.48;46.91;100767.69;4943388;28;20039;-74
2022/05/18 11:27:27;;;;;;;3.38;0.73;;;;;;;27.54;46.83;100756.69;4943624;28;20042;-74
2022/05/18 11:30:08;;;;;;;2.05;0.70;;;;;;;27.73;45.39;100753.47;4954548;28;20029;-74
2022/05/18 11:32:55;;;;;;;2.88;1.02;;;;;;;27.92;45.30;100751.50;4962819;28;20031;-74
2022/05/18 11:35:39;;;;;;;3.25;0.80;;;;;;;28.05;44.97;100746.97;4978098;28;20084;-74
2022/05/18 11:38:39;;;;;;;4.65;0.70;;;;;;;28.24;45.42;100740.84;4977915;28;20035;-74
2022/05/18 11:41:23;;;;;;;2.08;0.60;;;;;;;28.51;43.92;100740.44;4928661;29;20031;-74
2022/05/18 11:43:58;;;;;;;2.50;0.70;;;;;;;28.63;44.20;100731.41;4973976;28;20038;-74
2022/05/18 11:46:33;;;;;;;3.38;0.95;;;;;;;28.65;44.33;100731.00;4960926;28;20387;-74
2022/05/18 11:49:17;;;;;;;2.63;0.90;;;;;;;28.69;43.21;100735.47;4969263;28;20026;-74
2022/05/18 11:52:20;;;;;;;1.70;0.80;;;;;;;28.73;42.43;100732.63;4978442;28;20074;-74